sensor_id;sensor_type;location;lat;lon;timestamp;P1;durP1;ratioP1;P2;durP2;ratioP2
47725;SDS011;33483;48.294;16.388;2022-08-19T00:02:13;9.00;;;4.07;;
47725;SDS011;33483;48.294;16.388;2022-08-19T00:04:40;13.38;;;3.72;;
47725;SDS011;33483;48.294;16.388;2022-08-19T00:07:13;16.80;;;3.58;;
47725;SDS011;33483;48.294;16.388;2022-08-19T00:09:40;19.77;;;4.20;;
47725;SDS011;33483;48.294;16.388;2022-08-19T00:12:07;13.13;;;4.30;;
47725;SDS011;33483;48.294;16.388;2022-08-19T00:14:36;11.00;;;4.28;;
47725;SDS011;33483;48.294;16.388;2022-08-19T00:17:05;11.45;;;3.90;;
47725;SDS011;33483;48.294;16.388;2022-08-19T00:19:33;7.18;;;3.60;;
47725;SDS011;33483;48.294;16.388;2022-08-19T00:22:03;7.03;;;3.75;;
47725;SDS011;33483;48.294;16.388;2022-08-19T00:24:34;6.22;;;3.53;;
47725;SDS011;33483;48.294;16.388;2022-08-19T00:27:02;8.27;;;4.03;;
47725;SDS011;33483;48.294;16.388;2022-08-19T00:29:49;10.90;;;3.83;;
47725;SDS011;33483;48.294;16.388;2022-08-19T00:32:18;12.25;;;4.25;;
47725;SDS011;33483;48.294;16.388;2022-08-19T00:34:49;18.63;;;4.45;;
47725;SDS011;33483;48.294;16.388;2022-08-19T00:37:17;6.40;;;3.30;;
47725;SDS011;33483;48.294;16.388;2022-08-19T00:39:44;7.78;;;3.45;;
47725;SDS011;33483;48.294;16.388;2022-08-19T00:42:14;10.23;;;3.97;;
47725;SDS011;33483;48.294;16.388;2022-08-19T00:44:42;10.43;;;4.18;;
47725;SDS011;33483;48.294;16.388;2022-08-19T00:47:10;9.75;;;3.88;;
47725;SDS011;33483;48.294;16.388;2022-08-19T00:49:44;15.27;;;4.00;;
47725;SDS011;33483;48.294;16.388;2022-08-19T00:52:20;11.30;;;4.22;;
47725;SDS011;33483;48.294;16.388;2022-08-19T00:54:50;8.07;;;4.00;;
47725;SDS011;33483;48.294;16.388;2022-08-19T00:57:20;13.38;;;3.92;;
47725;SDS011;33483;48.294;16.388;2022-08-19T00:59:54;8.77;;;3.72;;
47725;SDS011;33483;48.294;16.388;2022-08-19T01:02:29;8.35;;;3.97;;
47725;SDS011;33483;48.294;16.388;2022-08-19T01:05:00;15.20;;;3.88;;
47725;SDS011;33483;48.294;16.388;2022-08-19T01:07:33;12.90;;;4.75;;
47725;SDS011;33483;48.294;16.388;2022-08-19T01:10:04;6.97;;;3.83;;
47725;SDS011;33483;48.294;16.388;2022-08-19T01:12:34;9.55;;;4.25;;
47725;SDS011;33483;48.294;16.388;2022-08-19T01:15:06;13.50;;;4.13;;
47725;SDS011;33483;48.294;16.388;2022-08-19T01:17:36;16.63;;;5.00;;
47725;SDS011;33483;48.294;16.388;2022-08-19T01:20:07;10.60;;;4.65;;
47725;SDS011;33483;48.294;16.388;2022-08-19T01:22:49;10.82;;;3.90;;
47725;SDS011;33483;48.294;16.388;2022-08-19T01:25:20;15.10;;;5.22;;
47725;SDS011;33483;48.294;16.388;2022-08-19T01:27:52;9.55;;;4.53;;
47725;SDS011;33483;48.294;16.388;2022-08-19T01:30:24;8.70;;;4.40;;
47725;SDS011;33483;48.294;16.388;2022-08-19T01:32:53;12.00;;;3.72;;
47725;SDS011;33483;48.294;16.388;2022-08-19T01:35:22;10.93;;;4.25;;
47725;SDS011;33483;48.294;16.388;2022-08-19T01:37:51;9.27;;;5.05;;
47725;SDS011;33483;48.294;16.388;2022-08-19T01:40:22;11.05;;;4.20;;
47725;SDS011;33483;48.294;16.388;2022-08-19T01:42:56;11.70;;;4.40;;
47725;SDS011;33483;48.294;16.388;2022-08-19T01:45:24;11.35;;;3.55;;
47725;SDS011;33483;48.294;16.388;2022-08-19T01:47:53;15.90;;;4.20;;
47725;SDS011;33483;48.294;16.388;2022-08-19T01:50:29;14.13;;;4.35;;
47725;SDS011;33483;48.294;16.388;2022-08-19T01:52:58;13.15;;;4.10;;
47725;SDS011;33483;48.294;16.388;2022-08-19T01:55:33;13.45;;;4.93;;
47725;SDS011;33483;48.294;16.388;2022-08-19T01:58:11;11.67;;;4.33;;
47725;SDS011;33483;48.294;16.388;2022-08-19T02:00:42;14.63;;;4.78;;
47725;SDS011;33483;48.294;16.388;2022-08-19T02:03:12;15.20;;;4.53;;
47725;SDS011;33483;48.294;16.388;2022-08-19T02:05:40;10.13;;;3.85;;
47725;SDS011;33483;48.294;16.388;2022-08-19T02:08:08;14.18;;;3.78;;
47725;SDS011;33483;48.294;16.388;2022-08-19T02:10:38;16.90;;;4.03;;
47725;SDS011;33483;48.294;16.388;2022-08-19T02:13:09;11.02;;;3.80;;
47725;SDS011;33483;48.294;16.388;2022-08-19T02:15:38;16.60;;;3.67;;
47725;SDS011;33483;48.294;16.388;2022-08-19T02:18:08;12.98;;;3.58;;
47725;SDS011;33483;48.294;16.388;2022-08-19T02:20:36;8.52;;;3.75;;
47725;SDS011;33483;48.294;16.388;2022-08-19T02:23:05;11.77;;;3.20;;
47725;SDS011;33483;48.294;16.388;2022-08-19T02:25:39;11.05;;;3.63;;
47725;SDS011;33483;48.294;16.388;2022-08-19T02:28:07;7.13;;;3.10;;
47725;SDS011;33483;48.294;16.388;2022-08-19T02:30:34;10.13;;;3.35;;
47725;SDS011;33483;48.294;16.388;2022-08-19T02:33:01;7.82;;;2.88;;
47725;SDS011;33483;48.294;16.388;2022-08-19T02:35:28;9.20;;;3.67;;
47725;SDS011;33483;48.294;16.388;2022-08-19T02:37:55;15.60;;;3.55;;
47725;SDS011;33483;48.294;16.388;2022-08-19T02:40:47;12.18;;;3.55;;
47725;SDS011;33483;48.294;16.388;2022-08-19T02:43:17;9.45;;;3.80;;
47725;SDS011;33483;48.294;16.388;2022-08-19T02:45:47;10.73;;;4.22;;
47725;SDS011;33483;48.294;16.388;2022-08-19T02:48:16;7.85;;;3.88;;
47725;SDS011;33483;48.294;16.388;2022-08-19T02:50:48;12.57;;;4.32;;
47725;SDS011;33483;48.294;16.388;2022-08-19T02:53:25;8.05;;;4.13;;
47725;SDS011;33483;48.294;16.388;2022-08-19T02:55:54;8.60;;;4.32;;
47725;SDS011;33483;48.294;16.388;2022-08-19T02:58:25;11.48;;;4.35;;
47725;SDS011;33483;48.294;16.388;2022-08-19T03:00:53;10.13;;;4.45;;
47725;SDS011;33483;48.294;16.388;2022-08-19T03:03:22;9.82;;;4.80;;
47725;SDS011;33483;48.294;16.388;2022-08-19T03:05:50;8.75;;;4.30;;
47725;SDS011;33483;48.294;16.388;2022-08-19T03:08:25;9.05;;;4.65;;
47725;SDS011;33483;48.294;16.388;2022-08-19T03:10:52;9.60;;;4.57;;
47725;SDS011;33483;48.294;16.388;2022-08-19T03:13:23;12.73;;;4.97;;
47725;SDS011;33483;48.294;16.388;2022-08-19T03:15:50;14.10;;;5.10;;
47725;SDS011;33483;48.294;16.388;2022-08-19T03:18:17;13.10;;;4.68;;
47725;SDS011;33483;48.294;16.388;2022-08-19T03:20:45;10.88;;;4.90;;
47725;SDS011;33483;48.294;16.388;2022-08-19T03:23:15;8.60;;;4.60;;
47725;SDS011;33483;48.294;16.388;2022-08-19T03:25:44;13.68;;;5.47;;
47725;SDS011;33483;48.294;16.388;2022-08-19T03:28:36;9.98;;;4.72;;
47725;SDS011;33483;48.294;16.388;2022-08-19T03:31:08;7.50;;;4.75;;
47725;SDS011;33483;48.294;16.388;2022-08-19T03:33:58;9.95;;;4.90;;
47725;SDS011;33483;48.294;16.388;2022-08-19T03:36:26;9.52;;;4.88;;
47725;SDS011;33483;48.294;16.388;2022-08-19T03:38:56;9.13;;;4.70;;
47725;SDS011;33483;48.294;16.388;2022-08-19T03:41:30;8.77;;;4.45;;
47725;SDS011;33483;48.294;16.388;2022-08-19T03:44:15;5.63;;;4.28;;
47725;SDS011;33483;48.294;16.388;2022-08-19T03:46:46;11.35;;;4.78;;
47725;SDS011;33483;48.294;16.388;2022-08-19T03:49:18;7.82;;;4.90;;
47725;SDS011;33483;48.294;16.388;2022-08-19T03:51:53;10.82;;;5.40;;
47725;SDS011;33483;48.294;16.388;2022-08-19T03:54:24;10.13;;;5.18;;
47725;SDS011;33483;48.294;16.388;2022-08-19T03:56:55;15.70;;;5.25;;
47725;SDS011;33483;48.294;16.388;2022-08-19T03:59:24;9.82;;;4.50;;
47725;SDS011;33483;48.294;16.388;2022-08-19T04:02:00;8.95;;;4.72;;
47725;SDS011;33483;48.294;16.388;2022-08-19T04:04:29;11.55;;;4.53;;
47725;SDS011;33483;48.294;16.388;2022-08-19T04:06:57;7.88;;;4.80;;
47725;SDS011;33483;48.294;16.388;2022-08-19T04:09:25;9.10;;;4.95;;
47725;SDS011;33483;48.294;16.388;2022-08-19T04:11:53;12.23;;;5.85;;
47725;SDS011;33483;48.294;16.388;2022-08-19T04:14:22;9.48;;;5.40;;
47725;SDS011;33483;48.294;16.388;2022-08-19T04:16:51;9.00;;;5.28;;
47725;SDS011;33483;48.294;16.388;2022-08-19T04:19:18;8.85;;;4.60;;
47725;SDS011;33483;48.294;16.388;2022-08-19T04:21:47;11.35;;;5.47;;
47725;SDS011;33483;48.294;16.388;2022-08-19T04:24:18;9.60;;;4.97;;
47725;SDS011;33483;48.294;16.388;2022-08-19T04:26:45;8.20;;;5.03;;
47725;SDS011;33483;48.294;16.388;2022-08-19T04:29:19;8.20;;;4.80;;
47725;SDS011;33483;48.294;16.388;2022-08-19T04:31:48;11.15;;;5.88;;
47725;SDS011;33483;48.294;16.388;2022-08-19T04:34:17;12.25;;;5.13;;
47725;SDS011;33483;48.294;16.388;2022-08-19T04:36:49;9.50;;;5.15;;
47725;SDS011;33483;48.294;16.388;2022-08-19T04:39:21;8.38;;;5.38;;
47725;SDS011;33483;48.294;16.388;2022-08-19T04:42:16;13.48;;;5.95;;
47725;SDS011;33483;48.294;16.388;2022-08-19T04:45:07;9.38;;;5.88;;
47725;SDS011;33483;48.294;16.388;2022-08-19T04:47:39;12.38;;;5.43;;
47725;SDS011;33483;48.294;16.388;2022-08-19T04:50:26;10.57;;;5.65;;
47725;SDS011;33483;48.294;16.388;2022-08-19T04:52:55;6.90;;;5.30;;
47725;SDS011;33483;48.294;16.388;2022-08-19T04:55:22;7.07;;;4.55;;
47725;SDS011;33483;48.294;16.388;2022-08-19T04:58:13;8.45;;;6.00;;
47725;SDS011;33483;48.294;16.388;2022-08-19T05:00:41;11.07;;;5.82;;
47725;SDS011;33483;48.294;16.388;2022-08-19T05:03:08;9.57;;;6.07;;
47725;SDS011;33483;48.294;16.388;2022-08-19T05:05:44;8.80;;;5.82;;
47725;SDS011;33483;48.294;16.388;2022-08-19T05:08:16;9.82;;;5.55;;
47725;SDS011;33483;48.294;16.388;2022-08-19T05:10:57;7.88;;;5.65;;
47725;SDS011;33483;48.294;16.388;2022-08-19T05:13:24;9.50;;;6.03;;
47725;SDS011;33483;48.294;16.388;2022-08-19T05:15:58;9.90;;;5.68;;
47725;SDS011;33483;48.294;16.388;2022-08-19T05:18:28;14.60;;;6.38;;
47725;SDS011;33483;48.294;16.388;2022-08-19T05:21:15;10.73;;;6.35;;
47725;SDS011;33483;48.294;16.388;2022-08-19T05:24:04;12.30;;;5.70;;
47725;SDS011;33483;48.294;16.388;2022-08-19T05:26:39;8.75;;;5.90;;
47725;SDS011;33483;48.294;16.388;2022-08-19T05:29:09;8.68;;;5.60;;
47725;SDS011;33483;48.294;16.388;2022-08-19T05:31:39;11.15;;;6.68;;
47725;SDS011;33483;48.294;16.388;2022-08-19T05:34:08;10.55;;;6.88;;
47725;SDS011;33483;48.294;16.388;2022-08-19T05:36:46;11.70;;;7.00;;
47725;SDS011;33483;48.294;16.388;2022-08-19T05:39:14;12.73;;;6.95;;
47725;SDS011;33483;48.294;16.388;2022-08-19T05:41:44;11.10;;;6.85;;
47725;SDS011;33483;48.294;16.388;2022-08-19T05:44:13;8.15;;;6.20;;
47725;SDS011;33483;48.294;16.388;2022-08-19T05:46:42;7.50;;;5.93;;
47725;SDS011;33483;48.294;16.388;2022-08-19T05:49:14;11.55;;;6.38;;
47725;SDS011;33483;48.294;16.388;2022-08-19T05:51:46;12.30;;;6.38;;
47725;SDS011;33483;48.294;16.388;2022-08-19T05:54:17;9.75;;;6.35;;
47725;SDS011;33483;48.294;16.388;2022-08-19T05:56:45;16.52;;;6.88;;
47725;SDS011;33483;48.294;16.388;2022-08-19T05:59:16;19.55;;;7.32;;
47725;SDS011;33483;48.294;16.388;2022-08-19T06:01:45;11.60;;;6.40;;
47725;SDS011;33483;48.294;16.388;2022-08-19T06:04:18;13.40;;;6.68;;
47725;SDS011;33483;48.294;16.388;2022-08-19T06:06:50;10.38;;;6.60;;
47725;SDS011;33483;48.294;16.388;2022-08-19T06:09:21;10.27;;;6.13;;
47725;SDS011;33483;48.294;16.388;2022-08-19T06:11:52;8.27;;;5.82;;
47725;SDS011;33483;48.294;16.388;2022-08-19T06:14:24;12.95;;;6.32;;
47725;SDS011;33483;48.294;16.388;2022-08-19T06:16:54;10.20;;;6.40;;
47725;SDS011;33483;48.294;16.388;2022-08-19T06:19:22;8.88;;;5.90;;
47725;SDS011;33483;48.294;16.388;2022-08-19T06:21:52;10.27;;;5.90;;
47725;SDS011;33483;48.294;16.388;2022-08-19T06:24:21;10.85;;;6.95;;
47725;SDS011;33483;48.294;16.388;2022-08-19T06:26:51;8.65;;;5.65;;
47725;SDS011;33483;48.294;16.388;2022-08-19T06:29:25;8.80;;;5.55;;
47725;SDS011;33483;48.294;16.388;2022-08-19T06:31:55;9.55;;;5.70;;
47725;SDS011;33483;48.294;16.388;2022-08-19T06:34:24;9.77;;;5.57;;
47725;SDS011;33483;48.294;16.388;2022-08-19T06:36:54;7.93;;;5.78;;
47725;SDS011;33483;48.294;16.388;2022-08-19T06:39:26;9.23;;;5.75;;
47725;SDS011;33483;48.294;16.388;2022-08-19T06:41:57;6.82;;;5.40;;
47725;SDS011;33483;48.294;16.388;2022-08-19T06:44:29;8.38;;;5.53;;
47725;SDS011;33483;48.294;16.388;2022-08-19T06:47:09;9.50;;;5.50;;
47725;SDS011;33483;48.294;16.388;2022-08-19T06:49:48;11.45;;;5.55;;
47725;SDS011;33483;48.294;16.388;2022-08-19T06:52:17;10.70;;;6.25;;
47725;SDS011;33483;48.294;16.388;2022-08-19T06:54:44;8.75;;;5.88;;
47725;SDS011;33483;48.294;16.388;2022-08-19T06:57:22;9.52;;;5.78;;
47725;SDS011;33483;48.294;16.388;2022-08-19T06:59:51;12.50;;;6.00;;
47725;SDS011;33483;48.294;16.388;2022-08-19T07:02:19;7.75;;;5.20;;
47725;SDS011;33483;48.294;16.388;2022-08-19T07:04:47;11.98;;;5.30;;
47725;SDS011;33483;48.294;16.388;2022-08-19T07:07:19;11.10;;;5.40;;
47725;SDS011;33483;48.294;16.388;2022-08-19T07:09:47;13.80;;;5.78;;
47725;SDS011;33483;48.294;16.388;2022-08-19T07:12:26;9.30;;;5.20;;
47725;SDS011;33483;48.294;16.388;2022-08-19T07:14:56;7.53;;;4.88;;
47725;SDS011;33483;48.294;16.388;2022-08-19T07:17:24;9.63;;;5.05;;
47725;SDS011;33483;48.294;16.388;2022-08-19T07:19:52;10.73;;;5.50;;
47725;SDS011;33483;48.294;16.388;2022-08-19T07:22:20;14.98;;;5.07;;
47725;SDS011;33483;48.294;16.388;2022-08-19T07:24:54;10.05;;;4.63;;
47725;SDS011;33483;48.294;16.388;2022-08-19T07:27:23;8.30;;;5.13;;
47725;SDS011;33483;48.294;16.388;2022-08-19T07:29:51;7.78;;;4.25;;
47725;SDS011;33483;48.294;16.388;2022-08-19T07:32:23;9.45;;;5.00;;
47725;SDS011;33483;48.294;16.388;2022-08-19T07:34:53;8.82;;;4.55;;
47725;SDS011;33483;48.294;16.388;2022-08-19T07:37:23;8.48;;;4.35;;
47725;SDS011;33483;48.294;16.388;2022-08-19T07:39:59;9.32;;;4.47;;
47725;SDS011;33483;48.294;16.388;2022-08-19T07:42:27;6.95;;;4.22;;
47725;SDS011;33483;48.294;16.388;2022-08-19T07:44:56;10.52;;;5.03;;
47725;SDS011;33483;48.294;16.388;2022-08-19T07:47:25;9.80;;;4.65;;
47725;SDS011;33483;48.294;16.388;2022-08-19T07:50:14;7.88;;;4.43;;
47725;SDS011;33483;48.294;16.388;2022-08-19T07:52:42;10.13;;;4.30;;
47725;SDS011;33483;48.294;16.388;2022-08-19T07:58:09;6.85;;;4.32;;
47725;SDS011;33483;48.294;16.388;2022-08-19T08:00:38;9.70;;;3.90;;
47725;SDS011;33483;48.294;16.388;2022-08-19T08:03:05;7.10;;;4.07;;
47725;SDS011;33483;48.294;16.388;2022-08-19T08:05:32;8.82;;;3.80;;
47725;SDS011;33483;48.294;16.388;2022-08-19T08:08:18;10.25;;;3.72;;
47725;SDS011;33483;48.294;16.388;2022-08-19T08:11:16;9.30;;;4.13;;
47725;SDS011;33483;48.294;16.388;2022-08-19T08:13:46;7.50;;;3.80;;
47725;SDS011;33483;48.294;16.388;2022-08-19T08:16:33;7.00;;;3.78;;
47725;SDS011;33483;48.294;16.388;2022-08-19T08:19:05;8.98;;;3.28;;
47725;SDS011;33483;48.294;16.388;2022-08-19T08:21:51;8.95;;;4.00;;
47725;SDS011;33483;48.294;16.388;2022-08-19T08:24:19;6.78;;;3.30;;
47725;SDS011;33483;48.294;16.388;2022-08-19T08:26:47;8.40;;;3.10;;
47725;SDS011;33483;48.294;16.388;2022-08-19T08:29:18;8.93;;;3.55;;
47725;SDS011;33483;48.294;16.388;2022-08-19T08:31:47;7.00;;;4.00;;
47725;SDS011;33483;48.294;16.388;2022-08-19T08:34:28;14.75;;;3.55;;
47725;SDS011;33483;48.294;16.388;2022-08-19T08:36:57;7.72;;;3.50;;
47725;SDS011;33483;48.294;16.388;2022-08-19T08:39:26;7.10;;;3.15;;
47725;SDS011;33483;48.294;16.388;2022-08-19T08:47:29;8.02;;;3.30;;
47725;SDS011;33483;48.294;16.388;2022-08-19T08:50:05;8.00;;;3.35;;
47725;SDS011;33483;48.294;16.388;2022-08-19T08:52:39;8.13;;;2.97;;
47725;SDS011;33483;48.294;16.388;2022-08-19T08:55:13;6.20;;;3.05;;
47725;SDS011;33483;48.294;16.388;2022-08-19T09:00:19;9.05;;;3.50;;
47725;SDS011;33483;48.294;16.388;2022-08-19T09:02:50;8.50;;;3.15;;
47725;SDS011;33483;48.294;16.388;2022-08-19T09:05:18;7.82;;;3.20;;
47725;SDS011;33483;48.294;16.388;2022-08-19T09:10:39;7.80;;;3.30;;
47725;SDS011;33483;48.294;16.388;2022-08-19T09:15:48;8.48;;;3.63;;
47725;SDS011;33483;48.294;16.388;2022-08-19T09:21:14;7.10;;;3.20;;
47725;SDS011;33483;48.294;16.388;2022-08-19T09:23:45;9.07;;;3.28;;
47725;SDS011;33483;48.294;16.388;2022-08-19T09:26:17;11.23;;;3.40;;
47725;SDS011;33483;48.294;16.388;2022-08-19T09:28:48;6.53;;;3.47;;
47725;SDS011;33483;48.294;16.388;2022-08-19T09:31:18;7.50;;;3.33;;
47725;SDS011;33483;48.294;16.388;2022-08-19T09:33:48;9.95;;;3.10;;
47725;SDS011;33483;48.294;16.388;2022-08-19T09:36:19;12.13;;;3.20;;
47725;SDS011;33483;48.294;16.388;2022-08-19T09:39:00;9.73;;;3.08;;
47725;SDS011;33483;48.294;16.388;2022-08-19T09:41:28;6.28;;;2.80;;
47725;SDS011;33483;48.294;16.388;2022-08-19T09:43:56;6.88;;;3.90;;
47725;SDS011;33483;48.294;16.388;2022-08-19T09:46:28;7.90;;;3.40;;
47725;SDS011;33483;48.294;16.388;2022-08-19T09:48:58;9.85;;;3.10;;
47725;SDS011;33483;48.294;16.388;2022-08-19T09:51:32;15.25;;;3.67;;
47725;SDS011;33483;48.294;16.388;2022-08-19T09:54:01;9.25;;;3.53;;
47725;SDS011;33483;48.294;16.388;2022-08-19T09:56:31;7.45;;;2.80;;
47725;SDS011;33483;48.294;16.388;2022-08-19T09:59:00;7.13;;;3.05;;
47725;SDS011;33483;48.294;16.388;2022-08-19T10:01:31;9.95;;;3.00;;
47725;SDS011;33483;48.294;16.388;2022-08-19T10:03:59;6.68;;;2.90;;
47725;SDS011;33483;48.294;16.388;2022-08-19T10:06:40;6.10;;;2.85;;
47725;SDS011;33483;48.294;16.388;2022-08-19T10:09:13;9.07;;;3.38;;
47725;SDS011;33483;48.294;16.388;2022-08-19T10:11:42;9.15;;;3.15;;
47725;SDS011;33483;48.294;16.388;2022-08-19T10:14:20;8.55;;;3.70;;
47725;SDS011;33483;48.294;16.388;2022-08-19T10:16:50;10.38;;;3.05;;
47725;SDS011;33483;48.294;16.388;2022-08-19T10:19:19;10.15;;;3.35;;
47725;SDS011;33483;48.294;16.388;2022-08-19T10:21:52;6.90;;;3.20;;
47725;SDS011;33483;48.294;16.388;2022-08-19T10:24:26;7.63;;;3.10;;
47725;SDS011;33483;48.294;16.388;2022-08-19T10:26:55;6.95;;;3.47;;
47725;SDS011;33483;48.294;16.388;2022-08-19T10:29:25;13.98;;;6.32;;
47725;SDS011;33483;48.294;16.388;2022-08-19T10:32:02;9.17;;;3.90;;
47725;SDS011;33483;48.294;16.388;2022-08-19T10:34:36;9.50;;;3.40;;
47725;SDS011;33483;48.294;16.388;2022-08-19T10:37:15;17.20;;;3.88;;
47725;SDS011;33483;48.294;16.388;2022-08-19T10:39:54;11.27;;;3.53;;
47725;SDS011;33483;48.294;16.388;2022-08-19T10:42:22;10.18;;;3.88;;
47725;SDS011;33483;48.294;16.388;2022-08-19T10:44:49;12.90;;;3.72;;
47725;SDS011;33483;48.294;16.388;2022-08-19T10:47:17;12.85;;;3.65;;
47725;SDS011;33483;48.294;16.388;2022-08-19T10:49:52;18.67;;;3.55;;
47725;SDS011;33483;48.294;16.388;2022-08-19T10:52:40;11.30;;;3.33;;
47725;SDS011;33483;48.294;16.388;2022-08-19T10:55:17;14.85;;;3.40;;
47725;SDS011;33483;48.294;16.388;2022-08-19T10:58:09;10.77;;;3.42;;
47725;SDS011;33483;48.294;16.388;2022-08-19T11:00:38;12.85;;;3.88;;
47725;SDS011;33483;48.294;16.388;2022-08-19T11:03:06;10.05;;;3.58;;
47725;SDS011;33483;48.294;16.388;2022-08-19T11:05:35;10.63;;;4.03;;
47725;SDS011;33483;48.294;16.388;2022-08-19T11:08:09;10.68;;;3.85;;
47725;SDS011;33483;48.294;16.388;2022-08-19T11:10:51;10.85;;;4.90;;
47725;SDS011;33483;48.294;16.388;2022-08-19T11:13:28;13.40;;;3.53;;
47725;SDS011;33483;48.294;16.388;2022-08-19T11:16:00;12.65;;;4.20;;
47725;SDS011;33483;48.294;16.388;2022-08-19T11:18:34;18.38;;;4.40;;
47725;SDS011;33483;48.294;16.388;2022-08-19T11:21:11;9.73;;;4.70;;
47725;SDS011;33483;48.294;16.388;2022-08-19T11:23:47;14.75;;;4.93;;
47725;SDS011;33483;48.294;16.388;2022-08-19T11:26:17;14.07;;;4.82;;
47725;SDS011;33483;48.294;16.388;2022-08-19T11:28:45;14.43;;;4.20;;
47725;SDS011;33483;48.294;16.388;2022-08-19T11:31:14;13.75;;;5.07;;
47725;SDS011;33483;48.294;16.388;2022-08-19T11:33:43;11.75;;;4.75;;
47725;SDS011;33483;48.294;16.388;2022-08-19T11:36:13;14.38;;;5.57;;
47725;SDS011;33483;48.294;16.388;2022-08-19T11:38:44;13.88;;;4.53;;
47725;SDS011;33483;48.294;16.388;2022-08-19T11:41:15;13.75;;;5.13;;
47725;SDS011;33483;48.294;16.388;2022-08-19T11:43:45;17.90;;;4.68;;
47725;SDS011;33483;48.294;16.388;2022-08-19T11:46:13;14.52;;;4.78;;
47725;SDS011;33483;48.294;16.388;2022-08-19T11:48:42;10.93;;;4.30;;
47725;SDS011;33483;48.294;16.388;2022-08-19T11:51:19;14.20;;;4.78;;
47725;SDS011;33483;48.294;16.388;2022-08-19T11:53:48;15.52;;;4.35;;
47725;SDS011;33483;48.294;16.388;2022-08-19T11:56:17;17.55;;;4.63;;
47725;SDS011;33483;48.294;16.388;2022-08-19T11:58:45;12.20;;;3.90;;
47725;SDS011;33483;48.294;16.388;2022-08-19T12:01:14;15.93;;;4.07;;
47725;SDS011;33483;48.294;16.388;2022-08-19T12:03:46;19.35;;;4.38;;
47725;SDS011;33483;48.294;16.388;2022-08-19T12:06:16;17.40;;;4.03;;
47725;SDS011;33483;48.294;16.388;2022-08-19T12:08:46;20.10;;;4.22;;
47725;SDS011;33483;48.294;16.388;2022-08-19T12:11:14;17.17;;;4.00;;
47725;SDS011;33483;48.294;16.388;2022-08-19T12:13:41;20.63;;;4.47;;
47725;SDS011;33483;48.294;16.388;2022-08-19T12:16:12;19.48;;;4.07;;
47725;SDS011;33483;48.294;16.388;2022-08-19T12:18:45;19.23;;;3.90;;
47725;SDS011;33483;48.294;16.388;2022-08-19T12:21:13;13.90;;;4.05;;
47725;SDS011;33483;48.294;16.388;2022-08-19T12:23:48;13.07;;;4.40;;
47725;SDS011;33483;48.294;16.388;2022-08-19T12:26:21;12.55;;;4.72;;
47725;SDS011;33483;48.294;16.388;2022-08-19T12:28:49;14.50;;;4.13;;
47725;SDS011;33483;48.294;16.388;2022-08-19T12:31:16;13.45;;;4.15;;
47725;SDS011;33483;48.294;16.388;2022-08-19T12:33:44;18.83;;;3.83;;
47725;SDS011;33483;48.294;16.388;2022-08-19T12:36:15;14.40;;;3.78;;
47725;SDS011;33483;48.294;16.388;2022-08-19T12:38:44;18.63;;;4.28;;
47725;SDS011;33483;48.294;16.388;2022-08-19T12:41:13;14.27;;;3.97;;
47725;SDS011;33483;48.294;16.388;2022-08-19T12:43:42;10.15;;;4.00;;
47725;SDS011;33483;48.294;16.388;2022-08-19T12:46:11;10.95;;;3.80;;
47725;SDS011;33483;48.294;16.388;2022-08-19T12:48:41;10.77;;;3.63;;
47725;SDS011;33483;48.294;16.388;2022-08-19T12:51:09;14.45;;;4.22;;
47725;SDS011;33483;48.294;16.388;2022-08-19T12:53:38;12.60;;;3.83;;
47725;SDS011;33483;48.294;16.388;2022-08-19T12:56:09;12.52;;;3.70;;
47725;SDS011;33483;48.294;16.388;2022-08-19T12:58:38;12.23;;;4.15;;
47725;SDS011;33483;48.294;16.388;2022-08-19T13:01:06;9.80;;;4.00;;
47725;SDS011;33483;48.294;16.388;2022-08-19T13:03:35;17.10;;;4.35;;
47725;SDS011;33483;48.294;16.388;2022-08-19T13:06:09;16.58;;;3.72;;
47725;SDS011;33483;48.294;16.388;2022-08-19T13:08:36;20.60;;;4.60;;
47725;SDS011;33483;48.294;16.388;2022-08-19T13:11:09;13.85;;;4.18;;
47725;SDS011;33483;48.294;16.388;2022-08-19T13:13:45;13.38;;;4.28;;
47725;SDS011;33483;48.294;16.388;2022-08-19T13:16:14;10.05;;;3.65;;
47725;SDS011;33483;48.294;16.388;2022-08-19T13:18:44;16.23;;;4.35;;
47725;SDS011;33483;48.294;16.388;2022-08-19T13:21:19;14.23;;;3.97;;
47725;SDS011;33483;48.294;16.388;2022-08-19T13:23:48;12.70;;;4.30;;
47725;SDS011;33483;48.294;16.388;2022-08-19T13:26:16;17.23;;;4.25;;
47725;SDS011;33483;48.294;16.388;2022-08-19T13:28:45;12.25;;;4.35;;
47725;SDS011;33483;48.294;16.388;2022-08-19T13:31:32;12.52;;;4.15;;
47725;SDS011;33483;48.294;16.388;2022-08-19T13:34:26;11.70;;;3.78;;
47725;SDS011;33483;48.294;16.388;2022-08-19T13:37:01;14.27;;;4.28;;
47725;SDS011;33483;48.294;16.388;2022-08-19T13:39:32;14.23;;;4.35;;
47725;SDS011;33483;48.294;16.388;2022-08-19T13:42:01;13.05;;;4.00;;
47725;SDS011;33483;48.294;16.388;2022-08-19T13:44:29;10.65;;;3.83;;
47725;SDS011;33483;48.294;16.388;2022-08-19T13:47:01;21.48;;;4.60;;
47725;SDS011;33483;48.294;16.388;2022-08-19T13:49:36;16.48;;;3.83;;
47725;SDS011;33483;48.294;16.388;2022-08-19T13:52:04;15.75;;;3.65;;
47725;SDS011;33483;48.294;16.388;2022-08-19T13:54:32;21.50;;;4.10;;
47725;SDS011;33483;48.294;16.388;2022-08-19T13:57:02;13.27;;;4.25;;
47725;SDS011;33483;48.294;16.388;2022-08-19T13:59:30;18.63;;;4.05;;
47725;SDS011;33483;48.294;16.388;2022-08-19T14:01:57;14.05;;;3.63;;
47725;SDS011;33483;48.294;16.388;2022-08-19T14:04:26;12.32;;;3.35;;
47725;SDS011;33483;48.294;16.388;2022-08-19T14:06:54;15.73;;;4.22;;
47725;SDS011;33483;48.294;16.388;2022-08-19T14:09:24;20.20;;;4.05;;
47725;SDS011;33483;48.294;16.388;2022-08-19T14:11:52;12.20;;;4.05;;
47725;SDS011;33483;48.294;16.388;2022-08-19T14:14:19;11.63;;;4.40;;
47725;SDS011;33483;48.294;16.388;2022-08-19T14:16:46;14.75;;;4.25;;
47725;SDS011;33483;48.294;16.388;2022-08-19T14:19:14;20.30;;;4.07;;
47725;SDS011;33483;48.294;16.388;2022-08-19T14:21:42;20.50;;;3.83;;
47725;SDS011;33483;48.294;16.388;2022-08-19T14:24:09;13.57;;;4.00;;
47725;SDS011;33483;48.294;16.388;2022-08-19T14:26:36;11.57;;;4.03;;
47725;SDS011;33483;48.294;16.388;2022-08-19T14:29:03;11.10;;;3.88;;
47725;SDS011;33483;48.294;16.388;2022-08-19T14:31:31;16.10;;;4.82;;
47725;SDS011;33483;48.294;16.388;2022-08-19T14:33:58;15.32;;;3.58;;
47725;SDS011;33483;48.294;16.388;2022-08-19T14:36:26;16.20;;;4.43;;
47725;SDS011;33483;48.294;16.388;2022-08-19T14:38:53;12.98;;;3.85;;
47725;SDS011;33483;48.294;16.388;2022-08-19T14:41:22;16.23;;;3.78;;
47725;SDS011;33483;48.294;16.388;2022-08-19T14:43:51;14.30;;;4.03;;
47725;SDS011;33483;48.294;16.388;2022-08-19T14:46:28;17.45;;;3.97;;
47725;SDS011;33483;48.294;16.388;2022-08-19T14:48:56;16.52;;;3.88;;
47725;SDS011;33483;48.294;16.388;2022-08-19T14:51:25;14.85;;;3.30;;
47725;SDS011;33483;48.294;16.388;2022-08-19T14:53:53;11.70;;;3.72;;
47725;SDS011;33483;48.294;16.388;2022-08-19T14:56:23;18.85;;;4.35;;
47725;SDS011;33483;48.294;16.388;2022-08-19T14:58:53;18.00;;;4.07;;
47725;SDS011;33483;48.294;16.388;2022-08-19T15:01:21;25.63;;;4.10;;
47725;SDS011;33483;48.294;16.388;2022-08-19T15:03:50;11.20;;;3.30;;
47725;SDS011;33483;48.294;16.388;2022-08-19T15:06:22;14.73;;;3.83;;
47725;SDS011;33483;48.294;16.388;2022-08-19T15:08:53;10.10;;;3.60;;
47725;SDS011;33483;48.294;16.388;2022-08-19T15:11:23;8.57;;;3.47;;